sensor_id;sensor_type;location;lat;lon;timestamp;P1;durP1;ratioP1;P2;durP2;ratioP2
67715;SDS011;54508;43.238;25.306;2022-07-23T00:01:54;3.67;;;2.83;;
67715;SDS011;54508;43.238;25.306;2022-07-23T00:04:19;3.47;;;2.70;;
67715;SDS011;54508;43.238;25.306;2022-07-23T00:06:44;2.97;;;2.67;;
67715;SDS011;54508;43.238;25.306;2022-07-23T00:09:10;4.07;;;3.00;;
67715;SDS011;54508;43.238;25.306;2022-07-23T00:11:35;4.27;;;2.97;;
67715;SDS011;54508;43.238;25.306;2022-07-23T00:14:01;3.75;;;2.60;;
67715;SDS011;54508;43.238;25.306;2022-07-23T00:16:27;3.37;;;2.70;;
67715;SDS011;54508;43.238;25.306;2022-07-23T00:18:52;3.40;;;2.50;;
67715;SDS011;54508;43.238;25.306;2022-07-23T00:21:18;3.08;;;2.78;;
67715;SDS011;54508;43.238;25.306;2022-07-23T00:23:43;3.33;;;3.03;;
67715;SDS011;54508;43.238;25.306;2022-07-23T00:26:09;4.23;;;2.80;;
67715;SDS011;54508;43.238;25.306;2022-07-23T00:28:34;3.42;;;2.80;;
67715;SDS011;54508;43.238;25.306;2022-07-23T00:30:59;3.10;;;2.80;;
67715;SDS011;54508;43.238;25.306;2022-07-23T00:33:25;3.23;;;2.63;;
67715;SDS011;54508;43.238;25.306;2022-07-23T00:35:50;3.17;;;2.87;;
67715;SDS011;54508;43.238;25.306;2022-07-23T00:38:16;3.37;;;2.90;;
67715;SDS011;54508;43.238;25.306;2022-07-23T00:40:41;4.60;;;2.85;;
67715;SDS011;54508;43.238;25.306;2022-07-23T00:43:07;3.00;;;2.70;;
67715;SDS011;54508;43.238;25.306;2022-07-23T00:45:33;3.83;;;2.73;;
67715;SDS011;54508;43.238;25.306;2022-07-23T00:47:58;2.95;;;2.65;;
67715;SDS011;54508;43.238;25.306;2022-07-23T00:50:24;5.20;;;2.83;;
67715;SDS011;54508;43.238;25.306;2022-07-23T00:52:49;3.28;;;2.67;;
67715;SDS011;54508;43.238;25.306;2022-07-23T00:55:15;3.65;;;2.60;;
67715;SDS011;54508;43.238;25.306;2022-07-23T00:57:41;3.35;;;2.80;;
67715;SDS011;54508;43.238;25.306;2022-07-23T01:00:08;4.00;;;2.70;;
67715;SDS011;54508;43.238;25.306;2022-07-23T01:02:35;5.50;;;2.58;;
67715;SDS011;54508;43.238;25.306;2022-07-23T01:05:01;4.78;;;2.97;;
67715;SDS011;54508;43.238;25.306;2022-07-23T01:07:27;4.27;;;2.70;;
67715;SDS011;54508;43.238;25.306;2022-07-23T01:09:53;4.20;;;2.90;;
67715;SDS011;54508;43.238;25.306;2022-07-23T01:12:19;3.50;;;2.80;;
67715;SDS011;54508;43.238;25.306;2022-07-23T01:14:45;3.33;;;2.73;;
67715;SDS011;54508;43.238;25.306;2022-07-23T01:17:10;4.53;;;3.08;;
67715;SDS011;54508;43.238;25.306;2022-07-23T01:19:36;3.40;;;3.10;;
67715;SDS011;54508;43.238;25.306;2022-07-23T01:22:03;4.33;;;2.90;;
67715;SDS011;54508;43.238;25.306;2022-07-23T01:24:29;3.60;;;2.90;;
67715;SDS011;54508;43.238;25.306;2022-07-23T01:26:55;7.72;;;2.97;;
67715;SDS011;54508;43.238;25.306;2022-07-23T01:29:20;4.33;;;3.20;;
67715;SDS011;54508;43.238;25.306;2022-07-23T01:31:46;4.85;;;3.20;;
67715;SDS011;54508;43.238;25.306;2022-07-23T01:34:13;3.72;;;2.70;;
67715;SDS011;54508;43.238;25.306;2022-07-23T01:36:39;3.13;;;2.72;;
67715;SDS011;54508;43.238;25.306;2022-07-23T01:39:05;3.30;;;2.85;;
67715;SDS011;54508;43.238;25.306;2022-07-23T01:41:31;4.60;;;2.72;;
67715;SDS011;54508;43.238;25.306;2022-07-23T01:43:57;5.17;;;2.67;;
67715;SDS011;54508;43.238;25.306;2022-07-23T01:46:22;5.15;;;2.83;;
67715;SDS011;54508;43.238;25.306;2022-07-23T01:48:48;4.90;;;3.17;;
67715;SDS011;54508;43.238;25.306;2022-07-23T01:51:14;3.22;;;2.63;;
67715;SDS011;54508;43.238;25.306;2022-07-23T01:53:39;4.50;;;2.93;;
67715;SDS011;54508;43.238;25.306;2022-07-23T01:56:05;5.53;;;3.40;;
67715;SDS011;54508;43.238;25.306;2022-07-23T01:58:31;3.47;;;2.22;;
67715;SDS011;54508;43.238;25.306;2022-07-23T02:00:56;3.50;;;2.60;;
67715;SDS011;54508;43.238;25.306;2022-07-23T02:03:22;3.00;;;2.50;;
67715;SDS011;54508;43.238;25.306;2022-07-23T02:05:48;5.40;;;2.63;;
67715;SDS011;54508;43.238;25.306;2022-07-23T02:08:13;6.15;;;3.10;;
67715;SDS011;54508;43.238;25.306;2022-07-23T02:10:39;3.23;;;2.50;;
67715;SDS011;54508;43.238;25.306;2022-07-23T02:13:04;3.93;;;3.10;;
67715;SDS011;54508;43.238;25.306;2022-07-23T02:15:30;3.83;;;2.88;;
67715;SDS011;54508;43.238;25.306;2022-07-23T02:17:56;3.27;;;2.73;;
67715;SDS011;54508;43.238;25.306;2022-07-23T02:20:22;4.15;;;3.08;;
67715;SDS011;54508;43.238;25.306;2022-07-23T02:22:47;4.93;;;2.73;;
67715;SDS011;54508;43.238;25.306;2022-07-23T02:25:13;3.72;;;3.00;;
67715;SDS011;54508;43.238;25.306;2022-07-23T02:27:39;4.07;;;2.43;;
67715;SDS011;54508;43.238;25.306;2022-07-23T02:30:05;3.20;;;2.63;;
67715;SDS011;54508;43.238;25.306;2022-07-23T02:32:31;4.15;;;3.15;;
67715;SDS011;54508;43.238;25.306;2022-07-23T02:34:56;4.95;;;3.10;;
67715;SDS011;54508;43.238;25.306;2022-07-23T02:37:22;3.50;;;2.70;;
67715;SDS011;54508;43.238;25.306;2022-07-23T02:39:47;3.73;;;2.83;;
67715;SDS011;54508;43.238;25.306;2022-07-23T02:42:16;3.28;;;2.63;;
67715;SDS011;54508;43.238;25.306;2022-07-23T02:44:41;3.33;;;3.00;;
67715;SDS011;54508;43.238;25.306;2022-07-23T02:47:07;3.43;;;2.87;;
67715;SDS011;54508;43.238;25.306;2022-07-23T02:49:33;3.33;;;3.00;;
67715;SDS011;54508;43.238;25.306;2022-07-23T02:51:58;3.72;;;2.83;;
67715;SDS011;54508;43.238;25.306;2022-07-23T02:54:24;4.27;;;3.00;;
67715;SDS011;54508;43.238;25.306;2022-07-23T02:56:49;4.10;;;3.25;;
67715;SDS011;54508;43.238;25.306;2022-07-23T02:59:18;5.50;;;2.83;;
67715;SDS011;54508;43.238;25.306;2022-07-23T03:01:43;3.53;;;2.90;;
67715;SDS011;54508;43.238;25.306;2022-07-23T03:04:09;7.13;;;2.97;;
67715;SDS011;54508;43.238;25.306;2022-07-23T03:06:35;4.38;;;2.92;;
67715;SDS011;54508;43.238;25.306;2022-07-23T03:09:00;4.23;;;3.27;;
67715;SDS011;54508;43.238;25.306;2022-07-23T03:11:26;4.35;;;3.00;;
67715;SDS011;54508;43.238;25.306;2022-07-23T03:13:51;3.67;;;2.70;;
67715;SDS011;54508;43.238;25.306;2022-07-23T03:16:17;4.17;;;2.90;;
67715;SDS011;54508;43.238;25.306;2022-07-23T03:18:42;4.37;;;3.27;;
67715;SDS011;54508;43.238;25.306;2022-07-23T03:21:08;3.50;;;2.90;;
67715;SDS011;54508;43.238;25.306;2022-07-23T03:23:33;3.63;;;2.67;;
67715;SDS011;54508;43.238;25.306;2022-07-23T03:25:59;4.60;;;3.00;;
67715;SDS011;54508;43.238;25.306;2022-07-23T03:28:24;3.53;;;2.73;;
67715;SDS011;54508;43.238;25.306;2022-07-23T03:30:50;6.75;;;3.20;;
67715;SDS011;54508;43.238;25.306;2022-07-23T03:33:16;5.67;;;2.73;;
67715;SDS011;54508;43.238;25.306;2022-07-23T03:35:43;4.93;;;2.90;;
67715;SDS011;54508;43.238;25.306;2022-07-23T03:38:08;4.30;;;2.75;;
67715;SDS011;54508;43.238;25.306;2022-07-23T03:40:34;3.78;;;2.90;;
67715;SDS011;54508;43.238;25.306;2022-07-23T03:42:59;4.60;;;2.77;;
67715;SDS011;54508;43.238;25.306;2022-07-23T03:45:25;4.90;;;3.20;;
67715;SDS011;54508;43.238;25.306;2022-07-23T03:47:51;4.47;;;2.92;;
67715;SDS011;54508;43.238;25.306;2022-07-23T03:50:16;4.90;;;2.80;;
67715;SDS011;54508;43.238;25.306;2022-07-23T03:52:42;4.00;;;3.00;;
67715;SDS011;54508;43.238;25.306;2022-07-23T03:55:07;4.43;;;2.80;;
67715;SDS011;54508;43.238;25.306;2022-07-23T03:57:33;3.30;;;2.57;;
67715;SDS011;54508;43.238;25.306;2022-07-23T03:59:58;4.38;;;2.75;;
67715;SDS011;54508;43.238;25.306;2022-07-23T04:02:24;3.97;;;2.80;;
67715;SDS011;54508;43.238;25.306;2022-07-23T04:04:49;4.57;;;3.23;;
67715;SDS011;54508;43.238;25.306;2022-07-23T04:07:15;3.45;;;3.03;;
67715;SDS011;54508;43.238;25.306;2022-07-23T04:09:42;6.00;;;2.73;;
67715;SDS011;54508;43.238;25.306;2022-07-23T04:12:08;3.33;;;2.60;;
67715;SDS011;54508;43.238;25.306;2022-07-23T04:14:34;3.37;;;2.50;;
67715;SDS011;54508;43.238;25.306;2022-07-23T04:16:59;4.25;;;2.90;;
67715;SDS011;54508;43.238;25.306;2022-07-23T04:19:25;5.30;;;3.10;;
67715;SDS011;54508;43.238;25.306;2022-07-23T04:21:51;6.53;;;2.92;;
67715;SDS011;54508;43.238;25.306;2022-07-23T04:24:16;3.30;;;2.63;;
67715;SDS011;54508;43.238;25.306;2022-07-23T04:26:42;3.33;;;2.67;;
67715;SDS011;54508;43.238;25.306;2022-07-23T04:29:08;3.10;;;2.80;;
67715;SDS011;54508;43.238;25.306;2022-07-23T04:31:33;3.72;;;2.72;;
67715;SDS011;54508;43.238;25.306;2022-07-23T04:33:59;4.55;;;2.55;;
67715;SDS011;54508;43.238;25.306;2022-07-23T04:36:24;2.50;;;2.30;;
67715;SDS011;54508;43.238;25.306;2022-07-23T04:38:49;4.13;;;2.77;;
67715;SDS011;54508;43.238;25.306;2022-07-23T04:41:15;4.60;;;2.90;;
67715;SDS011;54508;43.238;25.306;2022-07-23T04:43:40;3.38;;;2.88;;
67715;SDS011;54508;43.238;25.306;2022-07-23T04:46:06;4.03;;;2.70;;
67715;SDS011;54508;43.238;25.306;2022-07-23T04:48:31;4.43;;;2.87;;
67715;SDS011;54508;43.238;25.306;2022-07-23T04:50:57;3.83;;;3.10;;
67715;SDS011;54508;43.238;25.306;2022-07-23T04:53:22;3.20;;;2.47;;
67715;SDS011;54508;43.238;25.306;2022-07-23T04:55:48;3.53;;;2.83;;
67715;SDS011;54508;43.238;25.306;2022-07-23T04:58:14;4.53;;;2.60;;
67715;SDS011;54508;43.238;25.306;2022-07-23T05:00:39;4.93;;;2.87;;
67715;SDS011;54508;43.238;25.306;2022-07-23T05:03:05;3.73;;;2.80;;
67715;SDS011;54508;43.238;25.306;2022-07-23T05:05:30;4.13;;;3.00;;
67715;SDS011;54508;43.238;25.306;2022-07-23T05:07:56;3.30;;;2.60;;
67715;SDS011;54508;43.238;25.306;2022-07-23T05:10:21;3.00;;;2.70;;
67715;SDS011;54508;43.238;25.306;2022-07-23T05:12:47;4.10;;;2.70;;
67715;SDS011;54508;43.238;25.306;2022-07-23T05:15:12;3.22;;;2.92;;
67715;SDS011;54508;43.238;25.306;2022-07-23T05:17:37;3.73;;;2.77;;
67715;SDS011;54508;43.238;25.306;2022-07-23T05:20:03;5.00;;;2.77;;
67715;SDS011;54508;43.238;25.306;2022-07-23T05:22:29;3.53;;;2.63;;
67715;SDS011;54508;43.238;25.306;2022-07-23T05:24:55;3.83;;;3.00;;
67715;SDS011;54508;43.238;25.306;2022-07-23T05:27:20;27.63;;;9.43;;
67715;SDS011;54508;43.238;25.306;2022-07-23T05:29:46;26.08;;;8.50;;
67715;SDS011;54508;43.238;25.306;2022-07-23T05:32:11;18.33;;;6.22;;
67715;SDS011;54508;43.238;25.306;2022-07-23T05:34:37;8.15;;;4.80;;
67715;SDS011;54508;43.238;25.306;2022-07-23T05:37:02;19.20;;;5.83;;
67715;SDS011;54508;43.238;25.306;2022-07-23T05:39:28;18.17;;;5.30;;
67715;SDS011;54508;43.238;25.306;2022-07-23T05:41:53;14.63;;;4.87;;
67715;SDS011;54508;43.238;25.306;2022-07-23T05:44:19;26.65;;;19.90;;
67715;SDS011;54508;43.238;25.306;2022-07-23T05:46:45;22.43;;;16.23;;
67715;SDS011;54508;43.238;25.306;2022-07-23T05:49:11;13.65;;;8.60;;
67715;SDS011;54508;43.238;25.306;2022-07-23T05:51:36;10.63;;;6.53;;
67715;SDS011;54508;43.238;25.306;2022-07-23T05:54:02;12.73;;;6.10;;
67715;SDS011;54508;43.238;25.306;2022-07-23T05:56:27;33.50;;;7.83;;
67715;SDS011;54508;43.238;25.306;2022-07-23T05:58:53;20.42;;;6.70;;
67715;SDS011;54508;43.238;25.306;2022-07-23T06:01:18;20.10;;;9.13;;
67715;SDS011;54508;43.238;25.306;2022-07-23T06:03:44;26.90;;;14.37;;
67715;SDS011;54508;43.238;25.306;2022-07-23T06:06:09;21.07;;;8.10;;
67715;SDS011;54508;43.238;25.306;2022-07-23T06:08:35;39.90;;;20.27;;
67715;SDS011;54508;43.238;25.306;2022-07-23T06:11:00;35.33;;;22.53;;
67715;SDS011;54508;43.238;25.306;2022-07-23T06:13:25;27.03;;;17.90;;
67715;SDS011;54508;43.238;25.306;2022-07-23T06:15:51;20.10;;;13.00;;
67715;SDS011;54508;43.238;25.306;2022-07-23T06:18:16;16.08;;;8.68;;
67715;SDS011;54508;43.238;25.306;2022-07-23T06:20:42;27.67;;;16.53;;
67715;SDS011;54508;43.238;25.306;2022-07-23T06:23:07;16.07;;;7.87;;
67715;SDS011;54508;43.238;25.306;2022-07-23T06:25:33;54.90;;;35.85;;
67715;SDS011;54508;43.238;25.306;2022-07-23T06:27:58;45.05;;;34.72;;
67715;SDS011;54508;43.238;25.306;2022-07-23T06:30:25;33.45;;;27.67;;
67715;SDS011;54508;43.238;25.306;2022-07-23T06:32:50;21.55;;;12.75;;
67715;SDS011;54508;43.238;25.306;2022-07-23T06:35:16;15.20;;;8.50;;
67715;SDS011;54508;43.238;25.306;2022-07-23T06:37:42;15.50;;;8.65;;
67715;SDS011;54508;43.238;25.306;2022-07-23T06:40:07;20.03;;;7.33;;
67715;SDS011;54508;43.238;25.306;2022-07-23T06:42:33;16.42;;;6.10;;
67715;SDS011;54508;43.238;25.306;2022-07-23T06:45:02;15.90;;;6.25;;
67715;SDS011;54508;43.238;25.306;2022-07-23T06:47:28;17.05;;;7.55;;
67715;SDS011;54508;43.238;25.306;2022-07-23T06:49:54;21.43;;;6.83;;
67715;SDS011;54508;43.238;25.306;2022-07-23T06:52:19;15.53;;;7.73;;
67715;SDS011;54508;43.238;25.306;2022-07-23T06:54:44;18.70;;;8.20;;
67715;SDS011;54508;43.238;25.306;2022-07-23T06:57:10;17.42;;;6.65;;
67715;SDS011;54508;43.238;25.306;2022-07-23T06:59:35;14.83;;;6.87;;
67715;SDS011;54508;43.238;25.306;2022-07-23T07:02:05;11.82;;;6.78;;
67715;SDS011;54508;43.238;25.306;2022-07-23T07:04:31;13.10;;;6.85;;
67715;SDS011;54508;43.238;25.306;2022-07-23T07:06:57;12.30;;;6.93;;
67715;SDS011;54508;43.238;25.306;2022-07-23T07:09:22;15.07;;;7.37;;
67715;SDS011;54508;43.238;25.306;2022-07-23T07:11:48;16.27;;;6.68;;
67715;SDS011;54508;43.238;25.306;2022-07-23T07:14:13;13.60;;;6.73;;
67715;SDS011;54508;43.238;25.306;2022-07-23T07:16:39;18.57;;;6.70;;
67715;SDS011;54508;43.238;25.306;2022-07-23T07:19:04;13.63;;;6.50;;
67715;SDS011;54508;43.238;25.306;2022-07-23T07:21:30;14.63;;;6.65;;
67715;SDS011;54508;43.238;25.306;2022-07-23T07:23:55;12.33;;;6.00;;
67715;SDS011;54508;43.238;25.306;2022-07-23T07:26:21;12.47;;;6.30;;
67715;SDS011;54508;43.238;25.306;2022-07-23T07:28:46;12.45;;;5.90;;
67715;SDS011;54508;43.238;25.306;2022-07-23T07:31:12;16.57;;;6.23;;
67715;SDS011;54508;43.238;25.306;2022-07-23T07:33:37;10.87;;;5.97;;
67715;SDS011;54508;43.238;25.306;2022-07-23T07:36:03;9.20;;;6.23;;
67715;SDS011;54508;43.238;25.306;2022-07-23T07:38:29;10.90;;;5.68;;
67715;SDS011;54508;43.238;25.306;2022-07-23T07:40:54;7.90;;;5.87;;
67715;SDS011;54508;43.238;25.306;2022-07-23T07:43:20;11.27;;;5.95;;
67715;SDS011;54508;43.238;25.306;2022-07-23T07:45:46;9.00;;;5.93;;
67715;SDS011;54508;43.238;25.306;2022-07-23T07:48:11;9.55;;;6.13;;
67715;SDS011;54508;43.238;25.306;2022-07-23T07:50:37;12.27;;;6.07;;
67715;SDS011;54508;43.238;25.306;2022-07-23T07:53:02;11.87;;;5.80;;
67715;SDS011;54508;43.238;25.306;2022-07-23T07:55:28;11.63;;;5.47;;
67715;SDS011;54508;43.238;25.306;2022-07-23T07:57:54;7.87;;;5.50;;
67715;SDS011;54508;43.238;25.306;2022-07-23T08:00:19;11.02;;;5.47;;
67715;SDS011;54508;43.238;25.306;2022-07-23T08:05:14;8.13;;;5.15;;
67715;SDS011;54508;43.238;25.306;2022-07-23T08:07:40;9.90;;;5.68;;
67715;SDS011;54508;43.238;25.306;2022-07-23T08:10:06;10.40;;;5.33;;
67715;SDS011;54508;43.238;25.306;2022-07-23T08:12:46;9.88;;;5.32;;
67715;SDS011;54508;43.238;25.306;2022-07-23T08:15:17;7.63;;;5.35;;
67715;SDS011;54508;43.238;25.306;2022-07-23T08:17:44;5.90;;;5.30;;
67715;SDS011;54508;43.238;25.306;2022-07-23T08:20:10;11.18;;;5.32;;
67715;SDS011;54508;43.238;25.306;2022-07-23T08:25:16;7.85;;;5.13;;
67715;SDS011;54508;43.238;25.306;2022-07-23T08:27:45;6.82;;;4.80;;
67715;SDS011;54508;43.238;25.306;2022-07-23T08:30:10;7.70;;;5.00;;
67715;SDS011;54508;43.238;25.306;2022-07-23T08:32:52;5.95;;;4.97;;
67715;SDS011;54508;43.238;25.306;2022-07-23T08:35:44;7.95;;;5.10;;
67715;SDS011;54508;43.238;25.306;2022-07-23T08:38:10;8.48;;;5.43;;
67715;SDS011;54508;43.238;25.306;2022-07-23T08:40:37;8.65;;;5.38;;
67715;SDS011;54508;43.238;25.306;2022-07-23T08:43:08;6.25;;;4.28;;
67715;SDS011;54508;43.238;25.306;2022-07-23T08:45:38;7.70;;;4.50;;
67715;SDS011;54508;43.238;25.306;2022-07-23T08:48:06;6.53;;;4.93;;
67715;SDS011;54508;43.238;25.306;2022-07-23T08:50:34;8.10;;;5.13;;
67715;SDS011;54508;43.238;25.306;2022-07-23T08:53:01;6.45;;;4.68;;
67715;SDS011;54508;43.238;25.306;2022-07-23T08:55:27;6.07;;;4.28;;
67715;SDS011;54508;43.238;25.306;2022-07-23T08:57:53;5.17;;;4.67;;
67715;SDS011;54508;43.238;25.306;2022-07-23T09:00:19;7.67;;;5.37;;
67715;SDS011;54508;43.238;25.306;2022-07-23T09:02:47;5.75;;;4.32;;
67715;SDS011;54508;43.238;25.306;2022-07-23T09:05:13;7.63;;;4.68;;
67715;SDS011;54508;43.238;25.306;2022-07-23T09:08:02;6.30;;;4.88;;
67715;SDS011;54508;43.238;25.306;2022-07-23T09:10:44;8.23;;;4.75;;
67715;SDS011;54508;43.238;25.306;2022-07-23T09:13:22;6.93;;;4.43;;
67715;SDS011;54508;43.238;25.306;2022-07-23T09:16:00;6.03;;;4.60;;
67715;SDS011;54508;43.238;25.306;2022-07-23T09:18:34;5.88;;;4.72;;
67715;SDS011;54508;43.238;25.306;2022-07-23T09:23:43;7.70;;;4.57;;
67715;SDS011;54508;43.238;25.306;2022-07-23T09:26:33;6.93;;;4.30;;
67715;SDS011;54508;43.238;25.306;2022-07-23T09:29:07;5.05;;;4.40;;
67715;SDS011;54508;43.238;25.306;2022-07-23T09:31:50;7.05;;;4.80;;
67715;SDS011;54508;43.238;25.306;2022-07-23T09:36:41;5.63;;;4.90;;
67715;SDS011;54508;43.238;25.306;2022-07-23T09:39:08;4.20;;;3.80;;
67715;SDS011;54508;43.238;25.306;2022-07-23T09:41:44;5.60;;;4.05;;
67715;SDS011;54508;43.238;25.306;2022-07-23T09:44:18;5.27;;;4.23;;
67715;SDS011;54508;43.238;25.306;2022-07-23T09:46:46;6.57;;;4.80;;
67715;SDS011;54508;43.238;25.306;2022-07-23T09:49:16;6.22;;;4.18;;
67715;SDS011;54508;43.238;25.306;2022-07-23T09:51:46;5.68;;;4.45;;
67715;SDS011;54508;43.238;25.306;2022-07-23T09:54:35;4.78;;;4.22;;
67715;SDS011;54508;43.238;25.306;2022-07-23T09:57:04;4.80;;;4.30;;
67715;SDS011;54508;43.238;25.306;2022-07-23T09:59:43;5.63;;;4.22;;
67715;SDS011;54508;43.238;25.306;2022-07-23T10:02:11;5.97;;;4.30;;
67715;SDS011;54508;43.238;25.306;2022-07-23T10:04:39;7.15;;;4.85;;
67715;SDS011;54508;43.238;25.306;2022-07-23T10:07:07;5.95;;;4.20;;
67715;SDS011;54508;43.238;25.306;2022-07-23T10:09:35;6.23;;;4.20;;
67715;SDS011;54508;43.238;25.306;2022-07-23T10:12:03;6.13;;;4.38;;
67715;SDS011;54508;43.238;25.306;2022-07-23T10:14:59;4.40;;;4.00;;
67715;SDS011;54508;43.238;25.306;2022-07-23T10:17:25;5.45;;;4.10;;
67715;SDS011;54508;43.238;25.306;2022-07-23T10:19:52;5.90;;;4.47;;
67715;SDS011;54508;43.238;25.306;2022-07-23T10:33:37;5.60;;;4.03;;
67715;SDS011;54508;43.238;25.306;2022-07-23T10:38:47;5.83;;;4.20;;
67715;SDS011;54508;43.238;25.306;2022-07-23T10:41:27;4.88;;;3.90;;
67715;SDS011;54508;43.238;25.306;2022-07-23T10:44:12;5.85;;;4.20;;
67715;SDS011;54508;43.238;25.306;2022-07-23T10:47:03;4.55;;;3.78;;
67715;SDS011;54508;43.238;25.306;2022-07-23T10:49:33;4.30;;;3.90;;
67715;SDS011;54508;43.238;25.306;2022-07-23T10:57:27;5.63;;;4.32;;
67715;SDS011;54508;43.238;25.306;2022-07-23T11:02:40;4.18;;;3.63;;
67715;SDS011;54508;43.238;25.306;2022-07-23T11:05:11;3.90;;;3.47;;
67715;SDS011;54508;43.238;25.306;2022-07-23T11:10:32;4.13;;;3.72;;
67715;SDS011;54508;43.238;25.306;2022-07-23T11:18:57;4.83;;;3.60;;
67715;SDS011;54508;43.238;25.306;2022-07-23T11:34:42;4.72;;;4.10;;
67715;SDS011;54508;43.238;25.306;2022-07-23T11:37:11;5.55;;;4.15;;
67715;SDS011;54508;43.238;25.306;2022-07-23T11:39:53;6.10;;;3.50;;
67715;SDS011;54508;43.238;25.306;2022-07-23T11:42:20;4.20;;;3.78;;
67715;SDS011;54508;43.238;25.306;2022-07-23T11:44:46;4.60;;;3.43;;
67715;SDS011;54508;43.238;25.306;2022-07-23T11:47:13;3.47;;;3.17;;
67715;SDS011;54508;43.238;25.306;2022-07-23T11:49:38;4.20;;;3.80;;
67715;SDS011;54508;43.238;25.306;2022-07-23T11:52:11;4.18;;;3.78;;
67715;SDS011;54508;43.238;25.306;2022-07-23T11:54:51;4.35;;;3.70;;
67715;SDS011;54508;43.238;25.306;2022-07-23T11:57:17;3.83;;;3.40;;
67715;SDS011;54508;43.238;25.306;2022-07-23T11:59:44;3.80;;;3.40;;
67715;SDS011;54508;43.238;25.306;2022-07-23T12:02:11;3.92;;;3.63;;
67715;SDS011;54508;43.238;25.306;2022-07-23T12:10:00;4.15;;;3.63;;
67715;SDS011;54508;43.238;25.306;2022-07-23T12:12:36;5.40;;;3.55;;
67715;SDS011;54508;43.238;25.306;2022-07-23T12:15:02;3.95;;;3.30;;
67715;SDS011;54508;43.238;25.306;2022-07-23T12:17:30;4.10;;;3.70;;
67715;SDS011;54508;43.238;25.306;2022-07-23T12:19:57;3.58;;;3.28;;
67715;SDS011;54508;43.238;25.306;2022-07-23T12:22:24;4.40;;;4.00;;
67715;SDS011;54508;43.238;25.306;2022-07-23T12:24:58;5.38;;;3.33;;
67715;SDS011;54508;43.238;25.306;2022-07-23T12:27:25;4.05;;;3.50;;
67715;SDS011;54508;43.238;25.306;2022-07-23T12:29:51;3.80;;;3.20;;
67715;SDS011;54508;43.238;25.306;2022-07-23T12:32:21;4.15;;;3.50;;
67715;SDS011;54508;43.238;25.306;2022-07-23T12:34:53;3.67;;;3.38;;
67715;SDS011;54508;43.238;25.306;2022-07-23T12:37:32;4.27;;;3.50;;
67715;SDS011;54508;43.238;25.306;2022-07-23T12:40:18;3.92;;;3.33;;
67715;SDS011;54508;43.238;25.306;2022-07-23T12:42:47;4.85;;;3.10;;
67715;SDS011;54508;43.238;25.306;2022-07-23T12:45:14;3.60;;;3.30;;
67715;SDS011;54508;43.238;25.306;2022-07-23T12:47:56;4.30;;;3.80;;
67715;SDS011;54508;43.238;25.306;2022-07-23T12:55:39;3.97;;;3.35;;
67715;SDS011;54508;43.238;25.306;2022-07-23T13:00:55;4.53;;;3.40;;
67715;SDS011;54508;43.238;25.306;2022-07-23T13:03:29;4.35;;;3.08;;
67715;SDS011;54508;43.238;25.306;2022-07-23T13:05:59;3.67;;;3.38;;
67715;SDS011;54508;43.238;25.306;2022-07-23T13:08:26;4.10;;;3.65;;
67715;SDS011;54508;43.238;25.306;2022-07-23T13:10:53;3.58;;;3.25;;
67715;SDS011;54508;43.238;25.306;2022-07-23T13:13:26;4.03;;;3.63;;
67715;SDS011;54508;43.238;25.306;2022-07-23T13:15:53;3.78;;;3.38;;
67715;SDS011;54508;43.238;25.306;2022-07-23T13:18:19;3.28;;;2.97;;
67715;SDS011;54508;43.238;25.306;2022-07-23T13:20:45;3.38;;;3.08;;
67715;SDS011;54508;43.238;25.306;2022-07-23T13:23:12;5.28;;;3.38;;
67715;SDS011;54508;43.238;25.306;2022-07-23T13:25:37;3.85;;;3.38;;
67715;SDS011;54508;43.238;25.306;2022-07-23T13:28:03;4.97;;;3.30;;
67715;SDS011;54508;43.238;25.306;2022-07-23T13:30:29;3.83;;;3.53;;
67715;SDS011;54508;43.238;25.306;2022-07-23T13:32:54;3.60;;;3.30;;
67715;SDS011;54508;43.238;25.306;2022-07-23T13:35:20;4.83;;;3.40;;
67715;SDS011;54508;43.238;25.306;2022-07-23T13:37:46;4.68;;;3.17;;
67715;SDS011;54508;43.238;25.306;2022-07-23T13:40:12;4.20;;;3.17;;
67715;SDS011;54508;43.238;25.306;2022-07-23T13:42:37;3.92;;;3.10;;
67715;SDS011;54508;43.238;25.306;2022-07-23T13:45:04;3.37;;;3.07;;
67715;SDS011;54508;43.238;25.306;2022-07-23T13:47:30;4.25;;;2.97;;
67715;SDS011;54508;43.238;25.306;2022-07-23T13:49:56;3.97;;;3.08;;
67715;SDS011;54508;43.238;25.306;2022-07-23T13:52:21;3.90;;;3.53;;
67715;SDS011;54508;43.238;25.306;2022-07-23T13:54:47;3.42;;;3.13;;
67715;SDS011;54508;43.238;25.306;2022-07-23T13:57:12;3.53;;;2.97;;
67715;SDS011;54508;43.238;25.306;2022-07-23T13:59:38;2.93;;;2.57;;
67715;SDS011;54508;43.238;25.306;2022-07-23T14:02:04;5.33;;;3.27;;
67715;SDS011;54508;43.238;25.306;2022-07-23T14:04:30;3.38;;;3.08;;
67715;SDS011;54508;43.238;25.306;2022-07-23T14:06:55;3.63;;;3.10;;
67715;SDS011;54508;43.238;25.306;2022-07-23T14:09:21;3.60;;;2.97;;
67715;SDS011;54508;43.238;25.306;2022-07-23T14:11:47;4.30;;;3.53;;
67715;SDS011;54508;43.238;25.306;2022-07-23T14:14:13;5.10;;;3.53;;
67715;SDS011;54508;43.238;25.306;2022-07-23T14:16:38;3.63;;;3.20;;
67715;SDS011;54508;43.238;25.306;2022-07-23T14:19:04;3.40;;;3.10;;
67715;SDS011;54508;43.238;25.306;2022-07-23T14:21:29;3.77;;;3.27;;
67715;SDS011;54508;43.238;25.306;2022-07-23T14:23:55;3.80;;;3.40;;
67715;SDS011;54508;43.238;25.306;2022-07-23T14:26:20;4.05;;;3.22;;
67715;SDS011;54508;43.238;25.306;2022-07-23T14:28:47;3.53;;;2.80;;
67715;SDS011;54508;43.238;25.306;2022-07-23T14:31:12;4.22;;;3.33;;
67715;SDS011;54508;43.238;25.306;2022-07-23T14:33:38;4.27;;;3.13;;
67715;SDS011;54508;43.238;25.306;2022-07-23T14:36:03;4.87;;;3.43;;
67715;SDS011;54508;43.238;25.306;2022-07-23T14:38:29;4.40;;;3.00;;
67715;SDS011;54508;43.238;25.306;2022-07-23T14:40:55;4.60;;;3.30;;
67715;SDS011;54508;43.238;25.306;2022-07-23T14:43:21;3.65;;;3.30;;
67715;SDS011;54508;43.238;25.306;2022-07-23T14:45:47;3.80;;;3.00;;
67715;SDS011;54508;43.238;25.306;2022-07-23T14:48:13;3.40;;;3.10;;
67715;SDS011;54508;43.238;25.306;2022-07-23T14:50:38;3.47;;;3.17;;
67715;SDS011;54508;43.238;25.306;2022-07-23T14:53:04;3.30;;;3.00;;
67715;SDS011;54508;43.238;25.306;2022-07-23T14:55:32;2.93;;;2.70;;
67715;SDS011;54508;43.238;25.306;2022-07-23T14:57:59;4.07;;;3.15;;
67715;SDS011;54508;43.238;25.306;2022-07-23T15:00:25;3.47;;;3.17;;
67715;SDS011;54508;43.238;25.306;2022-07-23T15:02:51;3.87;;;3.10;;
67715;SDS011;54508;43.238;25.306;2022-07-23T15:05:17;3.50;;;3.20;;
67715;SDS011;54508;43.238;25.306;2022-07-23T15:07:43;4.27;;;3.13;;
67715;SDS011;54508;43.238;25.306;2022-07-23T15:10:08;4.28;;;3.05;;
67715;SDS011;54508;43.238;25.306;2022-07-23T15:12:34;3.77;;;3.10;;
67715;SDS011;54508;43.238;25.306;2022-07-23T15:14:59;3.50;;;3.20;;
67715;SDS011;54508;43.238;25.306;2022-07-23T15:17:25;3.38;;;3.08;;
67715;SDS011;54508;43.238;25.306;2022-07-23T15:19:50;4.23;;;3.33;;
67715;SDS011;54508;43.238;25.306;2022-07-23T15:22:16;3.53;;;2.90;;
67715;SDS011;54508;43.238;25.306;2022-07-23T15:24:42;4.80;;;3.10;;
67715;SDS011;54508;43.238;25.306;2022-07-23T15:27:08;3.80;;;3.40;;
67715;SDS011;54508;43.238;25.306;2022-07-23T15:29:34;3.57;;;3.27;;
67715;SDS011;54508;43.238;25.306;2022-07-23T15:31:59;3.42;;;3.13;;
67715;SDS011;54508;43.238;25.306;2022-07-23T15:34:25;3.33;;;3.03;;
67715;SDS011;54508;43.238;25.306;2022-07-23T15:36:52;3.47;;;3.17;;
67715;SDS011;54508;43.238;25.306;2022-07-23T15:39:17;3.27;;;2.97;;